createdAt,value
2023-05-19T00:01:57.380Z,0
2023-05-19T00:08:17.393Z,0
2023-05-19T00:14:40.408Z,0
2023-05-19T00:21:00.382Z,0
2023-05-19T00:27:23.318Z,0
2023-05-19T00:33:43.455Z,0
2023-05-19T00:40:06.384Z,0
2023-05-19T00:46:26.454Z,0
2023-05-19T00:52:49.383Z,0
2023-05-19T00:59:09.522Z,0
2023-05-19T01:05:32.391Z,0
2023-05-19T01:11:52.515Z,0
2023-05-19T01:18:15.326Z,0
2023-05-19T01:24:35.387Z,0
2023-05-19T01:30:58.428Z,0
2023-05-19T01:37:18.413Z,0
2023-05-19T01:43:41.366Z,0
2023-05-19T01:50:01.477Z,0
2023-05-19T01:56:24.404Z,0
2023-05-19T02:02:44.507Z,0
2023-05-19T02:09:07.383Z,0
2023-05-19T02:15:27.446Z,0
2023-05-19T02:21:50.322Z,0
2023-05-19T02:28:10.394Z,0
2023-05-19T02:34:33.360Z,0
2023-05-19T02:40:53.450Z,0
2023-05-19T02:47:16.432Z,0
2023-05-19T02:53:36.417Z,0
2023-05-19T02:59:59.366Z,0
2023-05-19T03:06:19.541Z,1
2023-05-19T03:12:42.430Z,3
2023-05-19T03:36:07.287Z,36
2023-05-19T03:42:27.314Z,60
2023-05-19T03:48:50.361Z,94
2023-05-19T03:55:10.366Z,136
2023-05-19T04:01:33.437Z,188
2023-05-19T04:07:53.366Z,247
2023-05-19T04:14:16.371Z,309
2023-05-19T04:20:36.427Z,368
2023-05-19T04:26:59.340Z,425
2023-05-19T04:33:19.453Z,478
2023-05-19T04:39:42.398Z,526
2023-05-19T04:46:02.357Z,563
2023-05-19T04:52:25.387Z,606
2023-05-19T04:58:45.401Z,646
2023-05-19T05:05:08.429Z,684
2023-05-19T05:11:28.370Z,718
2023-05-19T05:17:51.404Z,751
2023-05-19T05:24:11.386Z,782
2023-05-19T05:30:34.362Z,815
2023-05-19T05:36:54.388Z,848
2023-05-19T05:43:17.384Z,877
2023-05-19T05:49:37.442Z,902
2023-05-19T05:56:00.558Z,922
2023-05-19T06:02:20.404Z,944
2023-05-19T06:08:43.428Z,971
2023-05-19T06:15:03.370Z,996
2023-05-19T06:21:26.417Z,1020
2023-05-19T06:27:46.513Z,1036
2023-05-19T06:34:09.362Z,1059
2023-05-19T06:40:29.556Z,1093
2023-05-19T06:46:52.475Z,1123
2023-05-19T06:53:12.387Z,1151
2023-05-19T06:59:35.372Z,1178
2023-05-19T07:05:55.364Z,1207
2023-05-19T07:12:18.394Z,1238
2023-05-19T07:18:38.509Z,1270
2023-05-19T07:25:01.504Z,1316
2023-05-19T07:31:21.505Z,1366
2023-05-19T07:37:44.386Z,1409
2023-05-19T07:44:04.642Z,1455
2023-05-19T07:50:27.366Z,1512
2023-05-19T07:56:47.359Z,1565
2023-05-19T08:03:10.496Z,1636
2023-05-19T08:09:30.360Z,1705
2023-05-19T08:15:53.451Z,1756
2023-05-19T08:22:13.421Z,1828
2023-05-19T08:28:36.344Z,1905
2023-05-19T08:34:56.350Z,1980
2023-05-19T08:51:24.283Z,2205
2023-05-19T08:57:44.356Z,2402
2023-05-19T09:04:07.466Z,2699
2023-05-19T09:10:29.163Z,3228
2023-05-19T09:16:50.347Z,3664
2023-05-19T09:23:10.402Z,4389
2023-05-19T09:29:33.350Z,3422
2023-05-19T09:35:53.370Z,4805
2023-05-19T09:42:16.367Z,4546
2023-05-19T09:48:36.532Z,4899
2023-05-19T09:54:59.377Z,2991
2023-05-19T10:01:19.353Z,2350
2023-05-19T10:07:42.392Z,2173
2023-05-19T10:14:02.350Z,4517
2023-05-19T10:20:25.392Z,5045
2023-05-19T10:26:45.420Z,5815
2023-05-19T10:33:08.343Z,5498
2023-05-19T10:39:28.354Z,5097
2023-05-19T10:45:51.364Z,4793
2023-05-19T10:52:11.308Z,2593
2023-05-19T10:58:34.371Z,4653
2023-05-19T11:04:54.354Z,5119
2023-05-19T11:11:17.419Z,3342
2023-05-19T11:17:37.365Z,4563
2023-05-19T11:24:00.904Z,3388
2023-05-19T11:30:20.374Z,4616
2023-05-19T11:36:43.328Z,4877
2023-05-19T11:43:03.390Z,5169
2023-05-19T11:49:26.313Z,2090
2023-05-19T11:55:46.508Z,5120
2023-05-19T12:02:09.411Z,5152
2023-05-19T12:08:29.338Z,5254
2023-05-19T12:14:52.361Z,5763
2023-05-19T12:21:12.431Z,5327
2023-05-19T12:27:35.379Z,6063
2023-05-19T12:33:55.341Z,6814
2023-05-19T12:40:18.357Z,6710
2023-05-19T12:46:38.352Z,6976
2023-05-19T12:53:01.335Z,7493
2023-05-19T12:59:27.149Z,7843
2023-05-19T13:05:44.326Z,2512
2023-05-19T13:12:04.378Z,2722
2023-05-19T13:18:27.357Z,7326
2023-05-19T13:24:47.322Z,7765
2023-05-19T13:31:10.357Z,8339
2023-05-19T13:37:30.428Z,6125
2023-05-19T13:43:53.397Z,4054
2023-05-19T13:50:13.341Z,3427
2023-05-19T13:56:36.370Z,9044
2023-05-19T14:02:56.564Z,8842
2023-05-19T14:09:19.346Z,9028
2023-05-19T14:15:39.409Z,9408
2023-05-19T14:38:45.338Z,2705
2023-05-19T14:45:08.351Z,3443
2023-05-19T14:51:28.397Z,9646
2023-05-19T14:57:51.363Z,7585
2023-05-19T15:04:11.373Z,8330
2023-05-19T15:10:34.472Z,5775
2023-05-19T15:16:54.425Z,8264
2023-05-19T15:23:17.375Z,4744
2023-05-19T15:29:37.338Z,5770
2023-05-19T15:36:00.587Z,5709
2023-05-19T15:42:20.393Z,4989
2023-05-19T15:48:43.347Z,4040
2023-05-19T15:55:03.411Z,3387
2023-05-19T16:01:26.372Z,2865
2023-05-19T16:07:46.357Z,2758
2023-05-19T16:14:09.352Z,2654
2023-05-19T16:20:29.323Z,2315
2023-05-19T16:26:52.359Z,2274
2023-05-19T16:33:12.440Z,2703
2023-05-19T16:39:35.326Z,2784
2023-05-19T16:45:55.405Z,3120
2023-05-19T16:52:18.583Z,2878
2023-05-19T16:58:39.531Z,3208
2023-05-19T17:05:02.334Z,3024
2023-05-19T17:11:22.402Z,4015
2023-05-19T17:17:45.333Z,4396
2023-05-19T17:24:05.313Z,3640
2023-05-19T17:30:28.393Z,5193
2023-05-19T17:36:48.315Z,4523
2023-05-19T17:43:11.377Z,2993
2023-05-19T17:49:31.354Z,3038
2023-05-19T17:55:54.326Z,1660
2023-05-19T18:02:14.396Z,1421
2023-05-19T18:08:37.400Z,1223
2023-05-19T18:14:57.375Z,874
2023-05-19T18:21:20.315Z,445
2023-05-19T18:27:40.347Z,259
2023-05-19T18:34:03.348Z,206
2023-05-19T18:40:23.351Z,197
2023-05-19T18:46:46.379Z,172
2023-05-19T18:53:06.323Z,158
2023-05-19T18:59:29.373Z,139
2023-05-19T19:05:49.349Z,113
2023-05-19T19:12:12.311Z,93
2023-05-19T19:18:32.432Z,69
2023-05-19T19:24:55.353Z,38
2023-05-19T19:31:15.358Z,16
2023-05-19T19:37:38.366Z,8
2023-05-19T19:43:58.350Z,4
2023-05-19T19:50:21.353Z,2
2023-05-19T19:56:41.311Z,1
2023-05-19T20:03:05.707Z,1
2023-05-19T20:18:54.192Z,0
2023-05-19T20:25:14.307Z,0
2023-05-19T20:31:37.415Z,0
2023-05-19T20:37:57.421Z,0
2023-05-19T20:44:20.337Z,0
2023-05-19T20:50:40.317Z,0
2023-05-19T20:57:03.536Z,0
2023-05-19T21:03:23.513Z,0
2023-05-19T21:09:46.375Z,0
2023-05-19T21:16:06.357Z,0
2023-05-19T21:22:29.346Z,0
2023-05-19T21:28:49.406Z,0
2023-05-19T21:35:12.358Z,0
2023-05-19T21:41:32.423Z,0
2023-05-19T21:47:55.400Z,0
2023-05-19T21:54:15.431Z,0
2023-05-19T22:00:38.438Z,0
2023-05-19T22:23:36.337Z,0
2023-05-19T22:29:56.325Z,0
2023-05-19T22:36:19.384Z,0
2023-05-19T22:42:39.360Z,0
2023-05-19T22:49:02.358Z,0
2023-05-19T22:55:22.360Z,0
2023-05-19T23:01:45.461Z,0
2023-05-19T23:08:05.324Z,0
2023-05-19T23:14:28.455Z,0
2023-05-19T23:20:48.360Z,0
2023-05-19T23:27:11.402Z,0
2023-05-19T23:33:31.324Z,0
2023-05-19T23:39:54.416Z,0
2023-05-19T23:46:14.421Z,0
2023-05-19T23:52:37.378Z,0
2023-05-19T23:58:57.448Z,0
